Time;durP1;ratioP1;P1;durP2;ratioP2;P2;SDS_P1;SDS_P2;PMS_P1;PMS_P2;Temp;Humidity;BMP_temperature;BMP_pressure;BME280_temperature;BME280_humidity;BME280_pressure;Samples;Min_cycle;Max_cycle;Signal;HPM_P1;HPM_P2
2023/03/11 00:01:09;;;;;;;11.38;3.30;;;;;;;1.52;100.00;100578.22;5095827;28;20138;-66
2023/03/11 00:03:37;;;;;;;12.35;2.95;;;;;;;1.52;100.00;100578.22;5096283;28;20048;-66
2023/03/11 00:06:06;;;;;;;13.23;3.10;;;;;;;1.49;100.00;100579.44;5102732;27;20050;-65
2023/03/11 00:08:33;;;;;;;10.38;3.13;;;;;;;1.48;100.00;100583.16;5114852;28;20085;-66
2023/03/11 00:11:01;;;;;;;8.35;2.80;;;;;;;1.49;100.00;100579.44;5121844;28;20054;-65
2023/03/11 00:13:29;;;;;;;9.75;3.08;;;;;;;1.53;100.00;100591.41;5117397;28;20062;-67
2023/03/11 00:15:58;;;;;;;9.90;3.17;;;;;;;1.54;100.00;100593.06;5119103;27;20196;-70
2023/03/11 00:18:29;;;;;;;7.53;3.00;;;;;;;1.56;100.00;100596.31;5105288;28;20042;-68
2023/03/11 00:20:58;;;;;;;9.00;3.33;;;;;;;1.57;99.91;100597.19;5116522;28;20073;-67
2023/03/11 00:23:26;;;;;;;11.93;4.43;;;;;;;1.58;100.00;100602.31;5121970;28;20052;-66
2023/03/11 00:25:54;;;;;;;13.57;5.97;;;;;;;1.60;100.00;100597.56;5105954;28;20043;-66
2023/03/11 00:28:24;;;;;;;12.75;3.92;;;;;;;1.59;99.35;100605.81;5100759;28;20045;-66
2023/03/11 00:30:52;;;;;;;13.65;3.25;;;;;;;1.57;98.66;100613.28;5116187;28;20126;-65
2023/03/11 00:33:20;;;;;;;10.88;3.08;;;;;;;1.56;98.60;100611.63;5114990;28;20047;-66
2023/03/11 00:35:49;;;;;;;10.52;3.30;;;;;;;1.55;97.76;100613.50;5118080;28;20066;-65
2023/03/11 00:38:19;;;;;;;10.48;3.05;;;;;;;1.55;97.81;100615.34;5117854;27;20093;-67
2023/03/11 00:40:48;;;;;;;10.90;3.13;;;;;;;1.52;97.48;100613.94;5116382;28;20071;-68
2023/03/11 00:43:16;;;;;;;15.18;3.30;;;;;;;1.50;97.05;100626.72;5110562;28;20040;-65
2023/03/11 00:45:44;;;;;;;11.32;2.92;;;;;;;1.48;96.83;100626.13;5080943;28;20063;-64
2023/03/11 00:48:13;;;;;;;10.13;2.80;;;;;;;1.49;97.03;100630.44;5132236;27;20047;-63
2023/03/11 00:50:40;;;;;;;8.50;2.60;;;;;;;1.46;96.30;100629.00;5137959;27;20050;-60
2023/03/11 00:53:10;;;;;;;11.95;3.03;;;;;;;1.45;96.18;100627.38;5123412;27;20452;-64
2023/03/11 00:55:37;;;;;;;13.73;3.28;;;;;;;1.44;95.70;100632.94;5138574;27;20047;-64
2023/03/11 00:58:11;;;;;;;12.05;2.90;;;;;;;1.43;95.48;100628.63;5142533;27;20088;-64
2023/03/11 01:00:51;;;;;;;15.15;3.33;;;;;;;1.41;94.11;100634.19;5104807;28;20389;-65
2023/03/11 01:03:19;;;;;;;8.02;3.17;;;;;;;1.39;94.08;100633.56;5082167;28;20082;-65
2023/03/11 01:05:47;;;;;;;9.35;3.22;;;;;;;1.40;94.10;100634.41;5099219;28;20542;-65
2023/03/11 01:08:15;;;;;;;7.03;2.75;;;;;;;1.41;93.57;100641.44;5107052;28;20047;-64
2023/03/11 01:10:42;;;;;;;12.88;3.03;;;;;;;1.41;92.95;100644.94;5103513;27;20036;-65
2023/03/11 01:13:12;;;;;;;11.43;3.00;;;;;;;1.41;92.27;100641.44;5119624;28;20075;-66
2023/03/11 01:15:39;;;;;;;8.23;2.80;;;;;;;1.42;92.60;100653.81;5116019;28;20071;-65
2023/03/11 01:18:07;;;;;;;7.63;2.63;;;;;;;1.40;91.13;100653.22;5117520;28;20131;-65
2023/03/11 01:20:36;;;;;;;13.68;3.20;;;;;;;1.36;90.52;100660.84;5117580;27;20083;-65
2023/03/11 01:23:05;;;;;;;7.57;2.70;;;;;;;1.33;91.77;100672.00;5094815;28;20046;-65
2023/03/11 01:25:33;;;;;;;8.43;2.80;;;;;;;1.31;91.35;100668.72;5091468;28;20389;-65
2023/03/11 01:28:01;;;;;;;6.22;2.40;;;;;;;1.32;91.08;100672.22;5097780;28;20126;-65
2023/03/11 01:30:30;;;;;;;7.75;2.50;;;;;;;1.33;91.26;100676.56;5098001;28;20051;-67
2023/03/11 01:32:57;;;;;;;15.95;2.60;;;;;;;1.34;91.74;100667.47;5114991;28;20054;-65
2023/03/11 01:35:27;;;;;;;7.32;2.67;;;;;;;1.36;92.02;100670.78;5114800;28;20488;-66
2023/03/11 01:37:55;;;;;;;9.25;2.38;;;;;;;1.36;92.06;100670.78;5110296;28;20522;-66
2023/03/11 01:40:30;;;;;;;7.25;2.70;;;;;;;1.38;92.78;100676.75;5077180;27;20544;-66
2023/03/11 01:43:02;;;;;;;7.75;2.70;;;;;;;1.41;92.34;100684.38;5078149;28;20452;-66
2023/03/11 01:45:48;;;;;;;11.95;3.03;;;;;;;1.39;92.26;100675.72;5077320;28;20052;-65
2023/03/11 01:48:19;;;;;;;5.95;2.30;;;;;;;1.38;92.75;100680.25;5096071;28;20060;-67
2023/03/11 01:50:49;;;;;;;6.10;2.50;;;;;;;1.37;93.03;100677.78;5096268;28;20071;-66
2023/03/11 01:53:17;;;;;;;9.05;2.50;;;;;;;1.35;93.58;100678.00;5098048;28;20043;-65
2023/03/11 01:55:47;;;;;;;9.77;2.88;;;;;;;1.33;94.19;100677.38;5109639;28;20051;-65
2023/03/11 01:58:19;;;;;;;10.15;2.60;;;;;;;1.33;94.56;100682.75;5093899;28;20048;-65
2023/03/11 02:00:47;;;;;;;13.88;3.05;;;;;;;1.32;94.88;100680.28;5077269;28;20040;-66
2023/03/11 02:03:32;;;;;;;13.38;2.83;;;;;;;1.30;94.96;100676.97;5090525;28;20048;-66
2023/03/11 02:06:21;;;;;;;10.82;2.88;;;;;;;1.30;95.32;100676.97;5084507;28;20040;-65
2023/03/11 02:08:50;;;;;;;9.20;2.88;;;;;;;1.26;95.37;100677.41;5097146;28;20040;-65
2023/03/11 02:11:29;;;;;;;7.20;2.65;;;;;;;1.25;95.21;100673.06;5115084;28;20077;-67
2023/03/11 02:14:01;;;;;;;9.98;2.92;;;;;;;1.22;95.17;100678.84;5092860;28;20079;-67
2023/03/11 02:16:29;;;;;;;9.55;2.80;;;;;;;1.22;95.20;100686.88;5077111;28;20118;-65
2023/03/11 02:18:59;;;;;;;7.07;2.75;;;;;;;1.21;94.86;100682.56;5077582;28;20040;-66
2023/03/11 02:21:32;;;;;;;12.40;2.95;;;;;;;1.21;95.20;100690.63;5076901;28;20155;-66
2023/03/11 02:24:26;;;;;;;10.95;2.80;;;;;;;1.21;95.24;100687.94;5089438;28;20131;-66
2023/03/11 02:27:08;;;;;;;9.40;2.60;;;;;;;1.20;95.33;100694.34;5088480;28;20058;-66
2023/03/11 02:29:37;;;;;;;10.57;2.78;;;;;;;1.19;95.56;100692.69;5113653;28;20063;-66
2023/03/11 02:32:07;;;;;;;9.70;2.90;;;;;;;1.21;95.81;100692.50;5102864;28;20063;-66
2023/03/11 02:34:40;;;;;;;8.32;2.80;;;;;;;1.20;95.38;100702.41;5105654;27;20039;-66
2023/03/11 02:37:10;;;;;;;8.40;3.00;;;;;;;1.17;95.31;100699.28;5114366;28;20117;-69
2023/03/11 02:39:43;;;;;;;8.48;3.20;;;;;;;1.17;95.43;100697.44;5109853;27;20040;-66
2023/03/11 02:42:27;;;;;;;8.88;2.70;;;;;;;1.18;95.42;100693.72;5093291;28;20456;-66
2023/03/11 02:45:09;;;;;;;10.52;2.85;;;;;;;1.20;95.45;100694.34;5101175;27;20499;-65
2023/03/11 02:47:38;;;;;;;11.68;3.00;;;;;;;1.21;95.34;100685.25;5094129;28;20056;-65
2023/03/11 02:50:11;;;;;;;8.57;2.80;;;;;;;1.22;95.07;100692.25;5094624;28;20060;-66
2023/03/11 02:52:39;;;;;;;8.30;2.63;;;;;;;1.22;95.15;100691.44;5094051;28;20044;-66
2023/03/11 02:55:10;;;;;;;8.35;2.70;;;;;;;1.20;94.98;100694.34;5104194;27;20047;-65
2023/03/11 02:57:39;;;;;;;9.02;3.10;;;;;;;1.19;94.71;100694.56;5092971;28;20052;-66
2023/03/11 03:00:12;;;;;;;8.63;2.72;;;;;;;1.20;95.11;100698.88;5092759;28;20094;-65
2023/03/11 03:02:45;;;;;;;6.22;2.63;;;;;;;1.17;95.04;100693.94;5093757;28;20089;-65
2023/03/11 03:05:13;;;;;;;6.80;2.80;;;;;;;1.16;95.28;100687.75;5084805;27;20043;-64
2023/03/11 03:07:41;;;;;;;7.95;2.70;;;;;;;1.17;95.64;100686.69;5112708;28;20104;-66
2023/03/11 03:10:10;;;;;;;7.53;2.50;;;;;;;1.20;96.47;100688.97;5113260;28;20193;-66
2023/03/11 03:12:37;;;;;;;8.57;2.75;;;;;;;1.23;95.91;100685.06;5112280;28;20266;-64
2023/03/11 03:15:06;;;;;;;7.72;2.60;;;;;;;1.23;95.69;100693.09;5098646;28;20044;-64
2023/03/11 03:17:33;;;;;;;11.73;2.85;;;;;;;1.23;95.70;100695.78;5110703;28;20444;-66
2023/03/11 03:20:04;;;;;;;7.53;2.67;;;;;;;1.22;95.49;100702.19;5113355;28;20483;-66
2023/03/11 03:22:32;;;;;;;6.57;2.60;;;;;;;1.22;95.48;100707.53;5096417;28;20050;-66
2023/03/11 03:25:00;;;;;;;10.73;3.13;;;;;;;1.21;95.51;100722.81;5094240;28;20511;-65
2023/03/11 03:27:29;;;;;;;9.32;3.00;;;;;;;1.19;95.74;100719.53;5112622;27;20044;-65
2023/03/11 03:29:57;;;;;;;11.05;3.00;;;;;;;1.18;95.63;100736.66;5113750;28;20403;-65
2023/03/11 03:32:25;;;;;;;10.20;2.95;;;;;;;1.15;95.33;100729.00;5112600;28;20055;-65
2023/03/11 03:34:57;;;;;;;9.70;2.88;;;;;;;1.16;95.72;100740.59;5097592;28;20043;-64
2023/03/11 03:37:36;;;;;;;9.60;2.35;;;;;;;1.13;95.71;100739.16;5101866;28;20085;-65
2023/03/11 03:40:08;;;;;;;7.60;2.78;;;;;;;1.12;95.58;100745.53;5081949;28;20123;-66
2023/03/11 03:42:37;;;;;;;10.30;2.80;;;;;;;1.10;95.68;100747.59;5092723;28;20484;-66
2023/03/11 03:45:07;;;;;;;10.57;2.88;;;;;;;1.09;95.46;100751.31;5093144;28;20055;-65
2023/03/11 03:47:35;;;;;;;8.93;2.75;;;;;;;1.09;95.68;100750.50;5096627;28;20051;-65
2023/03/11 03:50:09;;;;;;;8.80;2.50;;;;;;;1.09;95.98;100755.88;5113615;28;20040;-65
2023/03/11 03:52:39;;;;;;;12.35;2.88;;;;;;;1.10;96.09;100752.97;5112936;28;20399;-65
2023/03/11 03:55:08;;;;;;;8.60;3.03;;;;;;;1.09;95.97;100751.31;5093608;28;20553;-65
2023/03/11 03:57:37;;;;;;;9.77;2.92;;;;;;;1.08;96.11;100749.66;5076088;28;20040;-68
2023/03/11 04:00:09;;;;;;;9.23;2.45;;;;;;;1.08;95.86;100757.72;5112793;28;20048;-66
2023/03/11 04:02:46;;;;;;;11.68;2.97;;;;;;;1.06;96.18;100759.81;5092237;28;20079;-66
2023/03/11 04:05:25;;;;;;;8.55;2.85;;;;;;;1.08;96.37;100760.38;5077757;28;20396;-67
2023/03/11 04:07:54;;;;;;;7.22;2.30;;;;;;;1.09;96.21;100762.06;5058849;28;20056;-67
2023/03/11 04:10:22;;;;;;;11.82;2.90;;;;;;;1.10;96.87;100766.38;5091453;28;20047;-66
2023/03/11 04:12:50;;;;;;;11.27;2.95;;;;;;;1.13;97.01;100768.66;5110360;28;20059;-66
2023/03/11 04:15:18;;;;;;;10.60;2.90;;;;;;;1.11;96.49;100770.72;5095810;28;20052;-65
2023/03/11 04:17:47;;;;;;;8.57;2.65;;;;;;;1.11;96.84;100770.72;5077497;28;20171;-65
2023/03/11 04:20:15;;;;;;;7.75;2.70;;;;;;;1.14;97.57;100764.94;5089506;28;20510;-65
2023/03/11 04:22:45;;;;;;;6.75;2.65;;;;;;;1.15;96.78;100771.94;5113198;28;20051;-65
2023/03/11 04:25:13;;;;;;;8.38;2.80;;;;;;;1.16;97.03;100778.97;5111027;28;20437;-66
2023/03/11 04:27:44;;;;;;;5.70;2.55;;;;;;;1.14;96.24;100788.28;5112064;28;20039;-64
2023/03/11 04:30:13;;;;;;;7.47;2.70;;;;;;;1.12;95.98;100782.28;5112549;28;20040;-65
2023/03/11 04:32:43;;;;;;;10.73;2.70;;;;;;;1.09;96.42;100783.53;5110340;28;20412;-65
2023/03/11 04:35:11;;;;;;;10.18;2.85;;;;;;;1.06;96.22;100786.63;5093033;28;20549;-65
2023/03/11 04:37:39;;;;;;;9.48;2.97;;;;;;;0.99;96.17;100791.16;5092975;28;20055;-65
2023/03/11 04:40:09;;;;;;;9.43;2.45;;;;;;;0.98;96.06;100787.63;5099690;27;20067;-64
2023/03/11 04:42:38;;;;;;;7.68;2.65;;;;;;;0.97;96.08;100780.63;5116113;28;20051;-67
2023/03/11 04:45:07;;;;;;;9.77;2.80;;;;;;;0.95;95.94;100781.88;5121386;28;20073;-64
2023/03/11 04:47:35;;;;;;;8.63;2.92;;;;;;;0.93;95.93;100783.94;5132716;28;20056;-62
2023/03/11 04:50:05;;;;;;;7.30;2.78;;;;;;;0.93;96.26;100776.69;5122604;28;20256;-65
2023/03/11 04:52:32;;;;;;;9.15;3.05;;;;;;;0.96;96.36;100783.50;5116063;28;20052;-65
2023/03/11 04:55:00;;;;;;;15.57;2.70;;;;;;;0.98;95.61;100781.44;5122534;28;20074;-60
2023/03/11 04:57:28;;;;;;;10.00;2.78;;;;;;;1.00;96.22;100779.38;5106891;28;20562;-62
2023/03/11 04:59:57;;;;;;;13.38;2.90;;;;;;;1.02;95.96;100788.06;5085213;28;20044;-65
2023/03/11 05:02:25;;;;;;;7.78;2.45;;;;;;;1.04;95.25;100780.63;5081824;28;20107;-65
2023/03/11 05:04:58;;;;;;;7.10;2.60;;;;;;;1.04;94.92;100780.63;5114837;28;20514;-66
2023/03/11 05:07:26;;;;;;;9.50;3.00;;;;;;;1.05;94.79;100783.09;5114111;28;20051;-65
2023/03/11 05:09:54;;;;;;;7.15;2.35;;;;;;;1.06;94.35;100781.25;5113724;28;20048;-67
2023/03/11 05:12:22;;;;;;;9.38;2.75;;;;;;;1.06;94.74;100783.94;5096202;27;20411;-65
2023/03/11 05:14:52;;;;;;;8.93;2.67;;;;;;;1.08;95.04;100789.91;5095935;28;20040;-66
2023/03/11 05:17:21;;;;;;;10.88;3.00;;;;;;;1.07;95.07;100790.94;5107660;28;20046;-65
2023/03/11 05:19:53;;;;;;;8.20;2.95;;;;;;;1.05;95.32;100799.19;5115167;28;20047;-64
2023/03/11 05:22:30;;;;;;;7.65;2.97;;;;;;;1.09;95.79;100801.47;5114749;27;20131;-65
2023/03/11 05:24:58;;;;;;;8.10;2.58;;;;;;;1.11;96.45;100802.94;5094647;28;20050;-67
2023/03/11 05:27:26;;;;;;;11.77;2.88;;;;;;;1.10;96.08;100809.31;5077505;28;20052;-64
2023/03/11 05:29:56;;;;;;;7.32;2.40;;;;;;;1.09;95.98;100809.53;5094252;28;20062;-65
2023/03/11 05:32:25;;;;;;;9.45;2.60;;;;;;;1.07;95.94;100807.03;5106227;27;20036;-66
2023/03/11 05:34:54;;;;;;;12.25;3.20;;;;;;;1.08;96.48;100800.63;5114856;28;20126;-65
2023/03/11 05:37:22;;;;;;;8.80;2.88;;;;;;;1.10;96.84;100806.63;5077115;28;20044;-66
2023/03/11 05:39:52;;;;;;;9.80;2.97;;;;;;;1.12;97.17;100803.75;5077252;28;20070;-66
2023/03/11 05:42:21;;;;;;;11.40;3.13;;;;;;;1.12;97.56;100807.25;5101928;27;20063;-65
2023/03/11 05:44:52;;;;;;;9.43;2.97;;;;;;;1.13;97.27;100816.13;5114501;28;20048;-67
2023/03/11 05:47:22;;;;;;;8.48;3.00;;;;;;;1.12;97.52;100823.34;5095097;28;20044;-65
2023/03/11 05:49:50;;;;;;;8.02;3.33;;;;;;;1.12;98.07;100828.72;5112834;28;20047;-66
2023/03/11 05:52:19;;;;;;;11.27;2.75;;;;;;;1.12;97.78;100830.59;5114218;27;20446;-66
2023/03/11 05:54:51;;;;;;;8.18;3.05;;;;;;;1.12;98.16;100827.91;5094051;28;20052;-66
2023/03/11 05:57:23;;;;;;;9.38;2.95;;;;;;;1.12;97.81;100834.09;5095146;28;20044;-66
2023/03/11 05:59:51;;;;;;;8.48;2.70;;;;;;;1.11;97.97;100829.75;5077206;28;20399;-65
2023/03/11 06:02:20;;;;;;;6.70;2.80;;;;;;;1.13;98.04;100843.81;5079713;28;20476;-65
2023/03/11 06:04:48;;;;;;;7.93;2.67;;;;;;;1.10;97.02;100846.88;5091096;28;20048;-67
2023/03/11 06:07:17;;;;;;;13.63;3.17;;;;;;;1.07;96.50;100852.66;5078004;28;20028;-65
2023/03/11 06:09:49;;;;;;;10.75;2.97;;;;;;;1.03;96.29;100846.03;5061217;28;20076;-63
2023/03/11 06:12:18;;;;;;;11.05;3.22;;;;;;;0.99;96.58;100856.38;5078197;28;20531;-66
2023/03/11 06:15:09;;;;;;;13.38;3.05;;;;;;;0.96;96.11;100856.78;5080390;28;20127;-66
2023/03/11 06:17:38;;;;;;;12.13;3.10;;;;;;;0.96;97.00;100858.63;5096500;28;20044;-65
2023/03/11 06:20:09;;;;;;;9.75;3.00;;;;;;;0.95;96.76;100854.28;5115203;27;20540;-64
2023/03/11 06:22:37;;;;;;;9.68;3.00;;;;;;;0.96;96.69;100858.63;5064611;28;20407;-66
2023/03/11 06:25:08;;;;;;;8.02;2.55;;;;;;;0.98;96.73;100860.06;5093674;28;20068;-67
2023/03/11 06:27:37;;;;;;;10.63;2.65;;;;;;;0.98;96.69;100861.94;5076950;28;20468;-67
2023/03/11 06:30:07;;;;;;;9.35;2.67;;;;;;;0.97;96.71;100866.47;5078542;28;20040;-65
2023/03/11 06:32:44;;;;;;;8.82;2.80;;;;;;;0.99;97.21;100863.59;5077192;28;20054;-64
2023/03/11 06:35:12;;;;;;;9.68;3.10;;;;;;;0.99;96.75;100869.78;5103017;27;20111;-64
2023/03/11 06:37:40;;;;;;;8.80;3.35;;;;;;;0.98;96.44;100873.47;5113063;28;20126;-65
2023/03/11 06:40:09;;;;;;;10.57;2.90;;;;;;;0.96;96.39;100880.94;5111647;28;20067;-66
2023/03/11 06:42:37;;;;;;;11.15;3.00;;;;;;;0.98;96.57;100875.34;5096056;28;20047;-66
2023/03/11 06:45:08;;;;;;;8.27;3.00;;;;;;;1.00;96.76;100886.69;5095343;27;20147;-65
2023/03/11 06:47:36;;;;;;;8.85;2.90;;;;;;;1.00;96.51;100892.88;5112312;28;20466;-64
2023/03/11 06:50:07;;;;;;;11.25;2.90;;;;;;;0.99;96.42;100890.44;5112439;28;20197;-66
2023/03/11 06:52:35;;;;;;;7.88;3.03;;;;;;;0.96;96.18;100890.81;5096754;28;20040;-66
2023/03/11 06:55:08;;;;;;;14.43;3.03;;;;;;;0.97;96.81;100898.66;5113036;28;20488;-66
2023/03/11 06:57:36;;;;;;;12.40;2.90;;;;;;;0.96;96.60;100899.72;5112153;28;20047;-65
2023/03/11 07:00:11;;;;;;;8.57;2.95;;;;;;;0.98;97.15;100913.72;5110651;28;20043;-63
2023/03/11 07:02:41;;;;;;;14.07;3.55;;;;;;;1.01;96.81;100925.91;5112871;28;20191;-64
2023/03/11 07:05:11;;;;;;;9.35;3.08;;;;;;;0.95;96.29;100922.19;5113010;28;20096;-64
2023/03/11 07:07:39;;;;;;;9.25;2.95;;;;;;;0.95;96.60;100924.88;5092415;28;20044;-65
2023/03/11 07:10:07;;;;;;;9.98;3.50;;;;;;;0.96;96.78;100931.03;5076520;28;20036;-64
2023/03/11 07:12:35;;;;;;;10.23;2.95;;;;;;;0.94;95.91;100935.78;5093906;28;20069;-67
2023/03/11 07:15:04;;;;;;;9.13;3.38;;;;;;;0.93;95.76;100934.16;5076274;28;20072;-66
2023/03/11 07:17:34;;;;;;;9.75;3.47;;;;;;;0.94;95.96;100936.63;5103670;27;20066;-67
2023/03/11 07:20:03;;;;;;;8.73;2.97;;;;;;;0.95;96.31;100937.47;5095950;28;20039;-65
2023/03/11 07:22:31;;;;;;;8.55;3.00;;;;;;;0.97;96.73;100941.59;5111547;28;20376;-65
2023/03/11 07:24:58;;;;;;;9.15;3.15;;;;;;;1.01;96.91;100947.38;5112527;28;20078;-66
2023/03/11 07:27:27;;;;;;;7.07;2.95;;;;;;;1.02;96.93;100955.22;5115057;28;20044;-66
2023/03/11 07:29:55;;;;;;;9.15;3.38;;;;;;;1.02;96.38;100946.34;5114607;28;20089;-66
2023/03/11 07:32:22;;;;;;;10.60;3.20;;;;;;;1.04;96.77;100942.44;5112134;28;20032;-67
2023/03/11 07:34:50;;;;;;;9.75;3.28;;;;;;;1.07;96.77;100957.31;5114104;28;20048;-67
2023/03/11 07:37:18;;;;;;;7.82;3.03;;;;;;;1.09;95.97;100951.75;5101281;28;20396;-67
2023/03/11 07:39:45;;;;;;;8.52;3.25;;;;;;;1.11;96.17;100958.56;5113766;28;20051;-67
2023/03/11 07:42:13;;;;;;;9.23;3.08;;;;;;;1.14;96.80;100960.84;5095457;28;20048;-66
2023/03/11 07:44:41;;;;;;;12.32;3.97;;;;;;;1.17;96.91;100962.28;5113927;28;20048;-66
2023/03/11 07:47:09;;;;;;;11.68;4.32;;;;;;;1.15;97.07;100958.97;5114142;28;20395;-67
2023/03/11 07:49:38;;;;;;;12.60;4.18;;;;;;;1.11;96.98;100963.94;5075126;28;20044;-66
2023/03/11 07:52:06;;;;;;;11.75;3.47;;;;;;;1.08;97.01;100967.00;5106343;28;20050;-67
2023/03/11 07:54:34;;;;;;;14.85;4.57;;;;;;;1.10;97.30;100974.84;5114671;28;20085;-66
2023/03/11 07:57:02;;;;;;;12.95;5.10;;;;;;;1.14;97.46;100979.63;5092272;28;20040;-66
2023/03/11 07:59:30;;;;;;;9.05;4.05;;;;;;;1.19;96.97;100982.50;5092559;28;20125;-66
2023/03/11 08:01:57;;;;;;;9.75;3.58;;;;;;;1.22;96.57;100987.47;5093613;28;20138;-66
2023/03/11 08:04:25;;;;;;;12.35;3.70;;;;;;;1.25;95.43;100987.09;5094587;28;20438;-67
2023/03/11 08:06:53;;;;;;;11.77;4.82;;;;;;;1.21;95.03;100985.00;5075539;28;20048;-66
2023/03/11 08:09:21;;;;;;;12.57;4.55;;;;;;;1.27;95.60;100985.03;5093152;28;20155;-67
2023/03/11 08:11:48;;;;;;;7.35;3.53;;;;;;;1.33;95.46;100982.56;5093662;28;20048;-66
2023/03/11 08:14:16;;;;;;;7.88;3.28;;;;;;;1.38;95.43;100988.16;5096418;28;20054;-66
2023/03/11 08:16:44;;;;;;;9.65;3.13;;;;;;;1.39;94.62;100993.28;5096039;28;20492;-65
2023/03/11 08:19:12;;;;;;;9.48;2.78;;;;;;;1.41;94.62;101006.53;5078662;28;20482;-65
2023/03/11 08:21:40;;;;;;;8.07;2.88;;;;;;;1.43;94.21;100999.09;5095623;28;20048;-66
2023/03/11 08:24:11;;;;;;;6.53;2.90;;;;;;;1.45;94.27;100997.88;5098596;28;20430;-66
2023/03/11 08:26:39;;;;;;;8.43;3.08;;;;;;;1.50;94.35;101005.31;5095689;28;20040;-66
2023/03/11 08:29:07;;;;;;;10.10;3.20;;;;;;;1.53;93.33;101004.91;5095813;28;20055;-66
2023/03/11 08:31:35;;;;;;;7.65;2.95;;;;;;;1.58;93.55;100991.69;5097906;28;20055;-65
2023/03/11 08:34:08;;;;;;;14.48;3.30;;;;;;;1.69;93.44;100999.16;5097627;27;20055;-69
2023/03/11 08:36:36;;;;;;;8.80;3.05;;;;;;;1.72;91.64;100994.41;5114812;28;20467;-66
2023/03/11 08:39:04;;;;;;;8.60;2.60;;;;;;;1.73;91.28;100990.66;5101633;27;20051;-67
2023/03/11 08:41:32;;;;;;;8.00;2.47;;;;;;;1.73;90.95;100994.16;5095795;28;20036;-66
2023/03/11 08:43:59;;;;;;;13.15;3.63;;;;;;;1.75;89.62;100996.66;5114081;28;20069;-64
2023/03/11 08:46:29;;;;;;;8.82;3.20;;;;;;;1.75;89.38;101008.22;5125223;28;20070;-60
2023/03/11 08:48:57;;;;;;;9.02;3.15;;;;;;;1.78;88.87;101007.00;5127850;28;20067;-62
2023/03/11 08:51:29;;;;;;;9.35;2.70;;;;;;;1.82;87.92;101008.25;5128394;28;20430;-63
2023/03/11 08:53:57;;;;;;;7.82;3.03;;;;;;;1.87;87.82;101021.88;5121629;28;20069;-65
2023/03/11 08:56:25;;;;;;;10.13;3.00;;;;;;;1.89;87.11;101022.50;5120683;28;20047;-61
2023/03/11 08:58:53;;;;;;;9.68;3.35;;;;;;;1.89;86.03;101033.25;5112890;28;20081;-63
2023/03/11 09:01:22;;;;;;;8.77;2.70;;;;;;;1.93;86.44;101031.81;5117930;28;20044;-67
2023/03/11 09:03:50;;;;;;;8.82;3.00;;;;;;;1.95;85.52;101024.38;5109631;27;20040;-65
2023/03/11 09:06:18;;;;;;;9.80;3.00;;;;;;;2.00;85.51;101032.66;5101563;28;20430;-65
2023/03/11 09:08:47;;;;;;;19.15;3.10;;;;;;;2.02;85.51;101030.59;5106063;28;20043;-63
2023/03/11 09:11:16;;;;;;;10.05;3.80;;;;;;;2.03;84.43;101032.22;5096728;28;20048;-66
2023/03/11 09:13:44;;;;;;;15.63;3.55;;;;;;;2.06;85.09;101026.44;5098430;27;20101;-66
2023/03/11 09:16:14;;;;;;;6.35;2.47;;;;;;;2.12;84.45;101028.31;5084784;28;20054;-66
2023/03/11 09:18:42;;;;;;;13.73;3.10;;;;;;;2.18;84.46;101033.88;5094945;28;20044;-68
2023/03/11 09:21:10;;;;;;;6.53;2.63;;;;;;;2.16;82.60;101041.31;5079232;28;20040;-66
2023/03/11 09:23:38;;;;;;;13.20;3.13;;;;;;;2.17;81.53;101043.00;5095012;28;20079;-66
2023/03/11 09:26:09;;;;;;;7.70;2.72;;;;;;;2.22;80.91;101037.81;5095817;28;20535;-66
2023/03/11 09:28:37;;;;;;;8.25;3.17;;;;;;;2.22;79.35;101043.19;5097466;28;20491;-66
2023/03/11 09:31:04;;;;;;;9.20;3.13;;;;;;;2.20;76.35;101037.19;5095652;28;20036;-66
2023/03/11 09:33:37;;;;;;;6.88;2.70;;;;;;;2.24;76.92;101043.81;5077934;28;20504;-66
2023/03/11 09:36:05;;;;;;;13.57;3.03;;;;;;;2.27;76.68;101040.72;5094982;28;20059;-67
2023/03/11 09:38:33;;;;;;;10.23;2.50;;;;;;;2.30;76.15;101043.78;5097061;28;20050;-66
2023/03/11 09:41:13;;;;;;;4.93;1.85;;;;;;;2.35;77.26;101048.56;5094483;28;20055;-66
2023/03/11 09:43:50;;;;;;;8.55;2.70;;;;;;;2.41;77.52;101055.81;5095650;28;20059;-66
2023/03/11 09:46:39;;;;;;;4.80;1.92;;;;;;;2.41;75.17;101061.19;5077901;28;20055;-67
2023/03/11 09:49:23;;;;;;;7.55;2.10;;;;;;;2.43;75.29;101058.25;5084809;28;20520;-66
2023/03/11 09:52:04;;;;;;;4.25;2.10;;;;;;;2.44;74.69;101054.56;5095785;28;20403;-65
2023/03/11 09:54:38;;;;;;;6.18;2.15;;;;;;;2.45;76.14;101062.41;5094196;28;20106;-66
2023/03/11 09:57:07;;;;;;;6.05;2.03;;;;;;;2.47;75.55;101060.31;5094379;28;20048;-65
2023/03/11 09:59:36;;;;;;;4.72;2.15;;;;;;;2.49;76.88;101052.88;5103633;28;20036;-65
2023/03/11 10:02:04;;;;;;;5.03;2.10;;;;;;;2.52;76.75;101055.16;5114483;28;20114;-65
2023/03/11 10:04:43;;;;;;;5.25;2.20;;;;;;;2.58;78.04;101052.69;5115446;28;20078;-67
2023/03/11 10:07:20;;;;;;;8.13;2.50;;;;;;;2.62;78.56;101045.81;5097763;28;20040;-66
2023/03/11 10:09:52;;;;;;;5.22;2.10;;;;;;;2.65;77.93;101048.13;5112901;28;20437;-65
2023/03/11 10:12:41;;;;;;;13.05;3.03;;;;;;;2.65;74.84;101061.56;5115472;28;20054;-67
2023/03/11 10:15:12;;;;;;;11.73;2.60;;;;;;;2.63;72.15;101063.63;5113424;28;20043;-66
2023/03/11 10:17:48;;;;;;;7.53;2.40;;;;;;;2.63;72.74;101059.06;5115333;28;20062;-67
2023/03/11 10:20:21;;;;;;;11.23;2.15;;;;;;;2.63;71.37;101063.63;5113875;28;20390;-66
2023/03/11 10:23:07;;;;;;;59.78;7.70;;;;;;;2.65;71.88;101066.94;5114464;28;20494;-67
2023/03/11 10:25:46;;;;;;;41.08;5.80;;;;;;;2.70;72.61;101072.53;5115589;28;20047;-66
2023/03/11 10:28:19;;;;;;;30.10;4.18;;;;;;;2.74;71.84;101071.03;5097525;28;20399;-64
2023/03/11 10:30:54;;;;;;;11.57;2.45;;;;;;;2.76;70.17;101064.41;5112323;28;20061;-66
2023/03/11 10:33:30;;;;;;;8.30;2.10;;;;;;;2.81;71.48;101071.03;5114910;28;20406;-67
2023/03/11 10:36:03;;;;;;;5.80;2.47;;;;;;;2.87;71.94;101071.03;5113735;28;20537;-67
2023/03/11 10:38:38;;;;;;;38.47;5.60;;;;;;;2.90;70.13;101075.97;5115305;28;20126;-67
2023/03/11 10:41:21;;;;;;;18.52;3.75;;;;;;;2.90;71.10;101080.53;5110643;28;20058;-65
2023/03/11 10:43:56;;;;;;;7.45;2.22;;;;;;;2.92;71.51;101073.91;5093525;28;20114;-67
2023/03/11 10:46:26;;;;;;;42.25;4.70;;;;;;;2.95;71.18;101070.78;5089345;28;20605;-66
2023/03/11 10:48:55;;;;;;;29.63;3.95;;;;;;;3.00;72.40;101075.53;5093501;28;20083;-66
2023/03/11 10:51:25;;;;;;;6.88;2.15;;;;;;;3.00;72.01;101075.53;5094447;28;20523;-67
2023/03/11 10:53:58;;;;;;;7.32;2.40;;;;;;;3.02;71.29;101078.03;5093712;28;20076;-66
2023/03/11 10:56:30;;;;;;;5.10;1.80;;;;;;;3.04;71.74;101073.28;5092932;28;20051;-66
2023/03/11 10:58:59;;;;;;;7.22;2.30;;;;;;;3.04;71.18;101075.97;5093429;28;20083;-65
2023/03/11 11:01:28;;;;;;;8.05;2.00;;;;;;;3.06;71.19;101073.88;5094698;28;20044;-64
2023/03/11 11:03:59;;;;;;;7.00;2.33;;;;;;;3.07;70.02;101067.44;5092862;28;20126;-66
2023/03/11 11:06:33;;;;;;;8.90;2.38;;;;;;;3.09;70.27;101071.59;5093947;28;20446;-64
2023/03/11 11:09:15;;;;;;;3.85;1.63;;;;;;;3.12;70.29;101073.03;5093392;28;20039;-65
2023/03/11 11:11:59;;;;;;;7.97;2.28;;;;;;;3.13;70.20;101070.13;5092613;28;20411;-65
2023/03/11 11:14:41;;;;;;;7.05;2.10;;;;;;;3.13;68.91;101080.91;5126074;27;20054;-64
2023/03/11 11:17:24;;;;;;;8.73;2.17;;;;;;;3.14;68.97;101074.47;5075470;28;20483;-64
2023/03/11 11:19:52;;;;;;;7.82;2.60;;;;;;;3.21;70.60;101074.44;5094419;28;20044;-64
2023/03/11 11:22:21;;;;;;;7.68;2.10;;;;;;;3.23;70.00;101072.38;5093140;28;20573;-63
2023/03/11 11:24:51;;;;;;;8.60;2.50;;;;;;;3.26;69.60;101080.00;5093753;28;20082;-64
2023/03/11 11:27:27;;;;;;;6.78;2.45;;;;;;;3.29;69.69;101087.66;5092308;28;20069;-67
2023/03/11 11:30:10;;;;;;;5.72;2.40;;;;;;;3.27;68.29;101084.38;5076209;28;20104;-67
2023/03/11 11:32:37;;;;;;;7.00;2.05;;;;;;;3.27;68.74;101083.53;5093815;28;20044;-65
2023/03/11 11:35:11;;;;;;;7.50;2.47;;;;;;;3.24;68.25;101086.66;5088764;28;20059;-64
2023/03/11 11:37:46;;;;;;;7.10;2.05;;;;;;;3.23;68.05;101090.41;5092519;28;20476;-65
2023/03/11 11:40:14;;;;;;;7.35;2.53;;;;;;;3.23;68.96;101080.44;5103587;28;20118;-66
2023/03/11 11:42:55;;;;;;;9.80;3.28;;;;;;;3.28;70.93;101082.50;5093918;28;20048;-64
2023/03/11 11:45:43;;;;;;;6.80;1.92;;;;;;;3.31;70.29;101077.50;4380142;28;10000690;-66